Keslers Cross Lanes, West Virginia
Current Conditions -  °F | °C
As of 2:51 PM on Wednesday 17 Dec 2014 (Local Time) from KBKW Reporting Station
Few Clouds Few Clouds  
Wind Chill: 32°   Ceiling: Unl
Heat Index: 40°   Visibility: 10mi
Dew Point: 27°   Wind: 14mph
Humidity: 60%   Direction: 270°W
Pressure: 30.07"   Gusts: NA
Location:  38.24°N, 80.94°W
Report Text: KBKW 171951Z AUTO 27012KT 10SM FEW024 04/M03 A3007 RMK AO2 SLP197 T00441028
Loading
Personal Weather Stations






























Interactive Weather Map New forecast layout! Learn more

10-Day Weather Forecast

Advertisements
Track Severe Weather on mobile